createdAt,value
2018-09-27T00:00:01.852Z,15.25
2018-09-27T00:02:32.689Z,15.23
2018-09-27T00:05:02.816Z,15.23
2018-09-27T00:07:33.228Z,15.21
2018-09-27T00:10:03.743Z,15.19
2018-09-27T00:12:34.570Z,15.18
2018-09-27T00:15:04.743Z,15.21
2018-09-27T00:17:34.850Z,15.21
2018-09-27T00:20:06.814Z,15.21
2018-09-27T00:22:37.111Z,15.21
2018-09-27T00:25:07.313Z,15.23
2018-09-27T00:27:37.280Z,15.23
2018-09-27T00:30:08.128Z,15.23
2018-09-27T00:32:38.836Z,15.24
2018-09-27T00:35:08.674Z,15.24
2018-09-27T00:37:39.342Z,15.26
2018-09-27T00:40:09.456Z,15.27
2018-09-27T00:42:40.315Z,15.28
2018-09-27T00:45:10.430Z,15.29
2018-09-27T00:47:40.281Z,15.29
2018-09-27T00:50:11.990Z,15.33
2018-09-27T00:52:42.930Z,15.33
2018-09-27T00:55:12.992Z,15.35
2018-09-27T00:57:43.649Z,15.35
2018-09-27T01:00:14.483Z,15.35
2018-09-27T01:02:45.036Z,15.37
2018-09-27T01:05:15.270Z,15.37
2018-09-27T01:07:46.346Z,15.37
2018-09-27T01:10:17.483Z,15.40
2018-09-27T01:12:49.184Z,15.41
2018-09-27T01:15:21.054Z,15.39
2018-09-27T01:17:51.541Z,15.40
2018-09-27T01:20:23.210Z,15.39
2018-09-27T01:22:54.650Z,15.43
2018-09-27T01:25:24.612Z,15.42
2018-09-27T01:27:55.480Z,15.42
2018-09-27T01:30:25.917Z,15.44
2018-09-27T01:32:57.130Z,15.46
2018-09-27T01:35:27.658Z,15.44
2018-09-27T01:37:58.621Z,15.41
2018-09-27T01:40:28.628Z,15.41
2018-09-27T01:42:58.956Z,15.41
2018-09-27T01:45:29.455Z,15.42
2018-09-27T01:48:02.270Z,15.45
2018-09-27T01:50:32.527Z,15.44
2018-09-27T01:53:03.729Z,15.45
2018-09-27T01:55:34.571Z,15.45
2018-09-27T01:58:04.712Z,15.47
2018-09-27T02:00:35.107Z,15.48
2018-09-27T02:03:07.232Z,15.49
2018-09-27T02:05:37.513Z,15.46
2018-09-27T02:08:07.607Z,15.47
2018-09-27T02:10:37.828Z,15.47
2018-09-27T02:13:07.971Z,15.45
2018-09-27T02:15:38.322Z,15.48
2018-09-27T02:18:08.340Z,15.46
2018-09-27T02:20:38.523Z,15.47
2018-09-27T02:23:08.625Z,15.48
2018-09-27T02:25:38.663Z,15.48
2018-09-27T02:28:09.751Z,15.47
2018-09-27T02:30:40.068Z,15.47
2018-09-27T02:33:11.063Z,15.50
2018-09-27T02:35:42.036Z,15.46
2018-09-27T02:38:13.461Z,15.48
2018-09-27T02:40:44.025Z,15.48
2018-09-27T02:43:15.260Z,15.48
2018-09-27T02:45:45.298Z,15.45
2018-09-27T02:48:16.895Z,15.46
2018-09-27T02:50:47.910Z,15.45
2018-09-27T02:53:18.304Z,15.47
2018-09-27T02:55:48.977Z,15.43
2018-09-27T02:58:19.845Z,15.46
2018-09-27T03:00:49.909Z,15.45
2018-09-27T03:03:21.001Z,15.45
2018-09-27T03:05:52.109Z,15.45
2018-09-27T03:08:22.491Z,15.45
2018-09-27T03:10:53.018Z,15.46
2018-09-27T03:13:23.224Z,15.46
2018-09-27T03:15:54.454Z,15.44
2018-09-27T03:18:25.359Z,15.47
2018-09-27T03:20:56.738Z,15.45
2018-09-27T03:23:28.166Z,15.46
2018-09-27T03:25:59.429Z,15.46
2018-09-27T03:28:30.405Z,15.48
2018-09-27T03:31:00.998Z,15.46
2018-09-27T03:33:31.467Z,15.46
2018-09-27T03:36:02.617Z,15.45
2018-09-27T03:38:33.583Z,15.47
2018-09-27T03:41:04.507Z,15.47
2018-09-27T03:43:35.201Z,15.46
2018-09-27T03:46:06.245Z,15.45
2018-09-27T03:48:37.571Z,15.45
2018-09-27T03:51:08.426Z,15.47
2018-09-27T03:53:39.365Z,15.46
2018-09-27T03:56:12.335Z,15.47
2018-09-27T03:58:44.782Z,15.48
2018-09-27T04:01:17.421Z,15.46
2018-09-27T04:03:48.498Z,15.44
2018-09-27T04:06:19.488Z,15.45
2018-09-27T04:08:51.546Z,15.46
2018-09-27T04:11:23.122Z,15.49
2018-09-27T04:13:55.276Z,15.49
2018-09-27T04:16:25.414Z,15.48
2018-09-27T04:18:56.302Z,15.50
2018-09-27T04:21:27.400Z,15.50
2018-09-27T04:23:58.471Z,15.49
2018-09-27T04:26:28.650Z,15.48
2018-09-27T04:28:58.644Z,15.50
2018-09-27T04:31:29.991Z,15.48
2018-09-27T04:34:01.076Z,15.50
2018-09-27T04:36:31.965Z,15.52
2018-09-27T04:39:03.067Z,15.52
2018-09-27T04:41:33.899Z,15.53
2018-09-27T04:44:04.716Z,15.55
2018-09-27T04:46:35.627Z,15.50
2018-09-27T04:49:06.888Z,15.54
2018-09-27T04:51:37.846Z,15.52
2018-09-27T04:54:08.486Z,15.48
2018-09-27T04:56:40.872Z,15.49
2018-09-27T04:59:12.664Z,15.50
2018-09-27T05:01:43.663Z,15.51
2018-09-27T05:04:13.870Z,15.51
2018-09-27T05:06:45.271Z,15.56
2018-09-27T05:09:16.370Z,15.55
2018-09-27T05:11:46.522Z,15.53
2018-09-27T05:15:47.724Z,15.55
2018-09-27T05:18:18.824Z,15.52
2018-09-27T05:20:49.899Z,15.52
2018-09-27T05:23:20.066Z,15.52
2018-09-27T05:25:50.258Z,15.53
2018-09-27T05:28:21.184Z,15.51
2018-09-27T05:30:52.155Z,15.55
2018-09-27T05:33:22.309Z,15.60
2018-09-27T05:35:52.712Z,15.55
2018-09-27T05:38:23.916Z,15.57
2018-09-27T05:40:55.265Z,15.59
2018-09-27T05:43:25.900Z,15.61
2018-09-27T05:45:57.056Z,15.64
2018-09-27T05:48:27.548Z,15.64
2018-09-27T05:50:58.946Z,15.66
2018-09-27T05:53:30.221Z,15.70
2018-09-27T05:56:01.493Z,15.69
2018-09-27T05:58:31.745Z,15.68
2018-09-27T06:01:01.974Z,15.71
2018-09-27T06:03:31.896Z,15.75
2018-09-27T06:06:03.115Z,15.76
2018-09-27T06:08:33.148Z,15.83
2018-09-27T06:11:05.398Z,15.80
2018-09-27T06:13:35.876Z,15.87
2018-09-27T06:16:07.325Z,15.87
2018-09-27T06:18:38.892Z,15.90
2018-09-27T06:21:09.727Z,15.95
2018-09-27T06:23:40.758Z,15.97
2018-09-27T06:26:14.143Z,16.01
2018-09-27T06:28:45.189Z,16.05
2018-09-27T06:31:15.042Z,16.10
2018-09-27T06:33:44.889Z,16.14
2018-09-27T06:36:16.017Z,16.14
2018-09-27T06:38:47.098Z,16.22
2018-09-27T06:41:17.867Z,16.26
2018-09-27T06:43:48.438Z,16.20
2018-09-27T06:46:17.479Z,16.28
2018-09-27T06:48:47.705Z,16.29
2018-09-27T06:51:16.395Z,16.31
2018-09-27T06:53:46.256Z,16.31
2018-09-27T06:56:15.973Z,16.27
2018-09-27T06:58:45.357Z,16.34
2018-09-27T07:01:14.651Z,16.36
2018-09-27T07:03:44.819Z,16.36
2018-09-27T07:06:13.972Z,16.36
2018-09-27T07:08:44.871Z,16.44
2018-09-27T07:11:15.765Z,16.46
2018-09-27T07:13:45.832Z,16.49
2018-09-27T07:16:16.287Z,16.52
2018-09-27T07:18:48.025Z,16.52
2018-09-27T07:21:18.072Z,16.58
2018-09-27T07:23:48.272Z,16.67
2018-09-27T07:26:18.805Z,16.69
2018-09-27T07:28:48.935Z,16.72
2018-09-27T07:31:18.865Z,16.72
2018-09-27T07:33:48.978Z,16.76
2018-09-27T07:36:18.976Z,16.82
2018-09-27T07:38:48.471Z,16.85
2018-09-27T07:41:18.474Z,16.86
2018-09-27T07:43:48.273Z,16.97
2018-09-27T07:46:18.344Z,16.91
2018-09-27T07:48:47.996Z,17.03
2018-09-27T07:51:18.200Z,17.13
2018-09-27T07:53:47.881Z,17.08
2018-09-27T07:56:17.771Z,17.24
2018-09-27T07:58:47.942Z,17.26
2018-09-27T08:01:17.613Z,17.48
2018-09-27T08:03:48.453Z,17.51
2018-09-27T08:06:18.977Z,17.73
2018-09-27T08:08:49.398Z,18.07
2018-09-27T08:11:19.675Z,18.15
2018-09-27T08:13:49.779Z,18.26
2018-09-27T08:16:19.840Z,18.63
2018-09-27T08:18:51.165Z,19.10
2018-09-27T08:21:21.130Z,19.68
2018-09-27T08:23:51.017Z,19.99
2018-09-27T08:26:19.666Z,20.16
2018-09-27T08:28:49.732Z,20.51
2018-09-27T08:31:19.965Z,20.54
2018-09-27T08:33:50.016Z,20.10
2018-09-27T08:36:20.037Z,20.73
2018-09-27T08:38:50.801Z,21.10
2018-09-27T08:41:21.532Z,21.75
2018-09-27T08:43:51.570Z,21.98
2018-09-27T08:46:21.568Z,22.09
2018-09-27T08:48:51.962Z,22.23
2018-09-27T08:51:22.110Z,22.31
2018-09-27T08:53:52.740Z,22.95
2018-09-27T08:56:22.823Z,22.89
2018-09-27T08:58:53.902Z,23.37
2018-09-27T09:01:23.877Z,23.32
2018-09-27T09:03:53.961Z,23.60
2018-09-27T09:06:24.129Z,23.65
2018-09-27T09:08:53.967Z,23.87
2018-09-27T09:11:24.035Z,23.48
2018-09-27T09:13:54.309Z,24.16
2018-09-27T09:16:23.868Z,24.11
2018-09-27T09:18:53.937Z,24.38
2018-09-27T09:21:23.948Z,24.47
2018-09-27T09:23:54.066Z,23.96
2018-09-27T09:26:24.163Z,24.96
2018-09-27T09:28:53.212Z,25.59
2018-09-27T09:31:22.538Z,25.56
2018-09-27T09:33:52.417Z,25.43
2018-09-27T09:36:22.675Z,25.94
2018-09-27T09:38:52.603Z,25.94
2018-09-27T09:41:22.993Z,26.27
2018-09-27T09:43:52.825Z,26.29
2018-09-27T09:46:22.962Z,26.62
2018-09-27T09:48:53.848Z,26.18
2018-09-27T09:51:24.466Z,26.90
2018-09-27T09:53:54.248Z,28.33
2018-09-27T09:56:24.114Z,28.38
2018-09-27T09:58:53.883Z,26.74
2018-09-27T10:01:23.532Z,27.57
2018-09-27T10:03:52.690Z,27.23
2018-09-27T10:06:22.339Z,27.58
2018-09-27T10:08:52.023Z,27.67
2018-09-27T10:11:21.759Z,27.57
2018-09-27T10:13:51.574Z,28.66
2018-09-27T10:16:21.337Z,28.00
2018-09-27T10:18:51.021Z,29.47
2018-09-27T10:21:21.060Z,26.90
2018-09-27T10:23:50.874Z,27.15
2018-09-27T10:26:20.994Z,26.30
2018-09-27T10:28:51.474Z,25.29
2018-09-27T10:31:21.461Z,24.58
2018-09-27T10:33:51.495Z,26.30
2018-09-27T10:36:21.357Z,26.47
2018-09-27T10:38:51.363Z,25.95
2018-09-27T10:41:21.360Z,24.91
2018-09-27T10:43:51.113Z,25.38
2018-09-27T10:46:20.927Z,24.66
2018-09-27T10:48:50.830Z,23.76
2018-09-27T10:51:20.085Z,24.30
2018-09-27T10:53:50.900Z,24.52
2018-09-27T10:56:20.864Z,24.38
2018-09-27T10:58:50.763Z,24.59
2018-09-27T11:01:20.720Z,23.71
2018-09-27T11:03:50.780Z,23.84
2018-09-27T11:06:20.625Z,23.78
2018-09-27T11:08:50.311Z,22.92
2018-09-27T11:11:20.342Z,22.89
2018-09-27T11:13:50.480Z,23.52
2018-09-27T11:16:20.941Z,23.15
2018-09-27T11:18:51.753Z,22.90
2018-09-27T11:21:21.716Z,23.15
2018-09-27T11:23:51.529Z,22.84
2018-09-27T11:26:21.639Z,22.87
2018-09-27T11:28:56.246Z,22.65
2018-09-27T11:31:31.774Z,22.72
2018-09-27T11:34:01.879Z,22.54
2018-09-27T11:36:32.200Z,22.42
2018-09-27T11:39:01.673Z,22.47
2018-09-27T11:41:33.323Z,22.23
2018-09-27T11:44:03.534Z,22.31
2018-09-27T11:46:33.112Z,22.40
2018-09-27T11:49:03.248Z,22.42
2018-09-27T11:51:34.019Z,22.47
2018-09-27T11:54:04.135Z,22.52
2018-09-27T11:56:33.411Z,22.54
2018-09-27T11:59:03.679Z,22.60
2018-09-27T12:01:34.342Z,22.53
2018-09-27T12:04:03.859Z,22.56
2018-09-27T12:06:34.011Z,22.46
2018-09-27T12:09:05.777Z,22.49
2018-09-27T12:11:35.795Z,22.68
2018-09-27T12:14:06.706Z,22.78
2018-09-27T12:16:36.856Z,22.74
2018-09-27T12:19:07.388Z,22.74
2018-09-27T12:21:37.390Z,22.76
2018-09-27T12:24:07.452Z,22.78
2018-09-27T12:26:37.392Z,22.78
2018-09-27T12:29:07.731Z,22.70
2018-09-27T12:31:38.296Z,22.78
2018-09-27T12:34:09.255Z,22.75
2018-09-27T12:36:38.852Z,22.71
2018-09-27T12:39:11.062Z,22.78
2018-09-27T12:41:41.049Z,22.59
2018-09-27T12:44:11.240Z,22.67
2018-09-27T12:46:41.174Z,22.70
2018-09-27T12:49:11.079Z,22.71
2018-09-27T12:51:41.139Z,22.59
2018-09-27T12:54:11.651Z,22.47
2018-09-27T12:56:42.683Z,22.44
2018-09-27T12:59:12.852Z,22.53
2018-09-27T13:01:43.113Z,22.50
2018-09-27T13:04:12.858Z,22.49
2018-09-27T13:06:42.817Z,22.47
2018-09-27T13:09:12.924Z,22.45
2018-09-27T13:11:44.183Z,22.41
2018-09-27T13:14:14.867Z,22.45
2018-09-27T13:16:45.416Z,22.49
2018-09-27T13:19:15.471Z,22.43
2018-09-27T13:21:48.237Z,22.44
2018-09-27T13:24:18.111Z,22.42
2018-09-27T13:26:47.343Z,22.45
2018-09-27T13:29:18.035Z,22.42
2018-09-27T13:31:47.558Z,22.36
2018-09-27T13:34:17.128Z,22.35
2018-09-27T13:36:46.667Z,22.36
2018-09-27T13:39:16.519Z,22.35
2018-09-27T13:41:47.238Z,22.35
2018-09-27T13:44:16.294Z,22.33
2018-09-27T13:46:46.346Z,22.30
2018-09-27T13:49:16.868Z,22.30
2018-09-27T13:51:46.531Z,22.32
2018-09-27T13:54:16.345Z,22.28
2018-09-27T13:56:46.752Z,22.28
2018-09-27T13:59:16.323Z,22.29
2018-09-27T14:01:46.438Z,22.30
2018-09-27T14:04:15.923Z,22.30
2018-09-27T14:06:45.889Z,22.27
2018-09-27T14:09:16.213Z,22.26
2018-09-27T14:11:45.996Z,22.25
2018-09-27T14:14:15.529Z,22.23
2018-09-27T14:16:46.704Z,22.21
2018-09-27T14:19:18.521Z,22.18
2018-09-27T14:21:47.717Z,22.17
2018-09-27T14:24:18.561Z,22.14
2018-09-27T14:26:49.695Z,22.13
2018-09-27T14:29:19.889Z,22.11
2018-09-27T14:31:49.222Z,22.12
2018-09-27T14:34:18.920Z,22.11
2018-09-27T14:36:48.453Z,22.08
2018-09-27T14:39:17.746Z,22.07
2018-09-27T14:41:47.536Z,22.04
2018-09-27T14:44:17.659Z,22.02
2018-09-27T14:46:47.124Z,22.04
2018-09-27T14:49:16.513Z,22.02
2018-09-27T14:51:45.405Z,22.00
2018-09-27T14:54:15.837Z,22.01
2018-09-27T14:56:45.661Z,22.03
2018-09-27T14:59:15.612Z,22.00
2018-09-27T15:01:45.062Z,21.99
2018-09-27T15:04:14.582Z,21.94
2018-09-27T15:06:44.085Z,21.94
2018-09-27T15:09:13.922Z,21.96
2018-09-27T15:11:43.824Z,21.93
2018-09-27T15:14:13.201Z,21.88
2018-09-27T15:16:42.625Z,21.93
2018-09-27T15:19:12.020Z,21.88
2018-09-27T15:21:41.883Z,21.87
2018-09-27T15:24:12.453Z,21.87
2018-09-27T15:26:44.235Z,21.84
2018-09-27T15:29:14.757Z,21.82
2018-09-27T15:31:44.231Z,21.79
2018-09-27T15:34:14.282Z,21.75
2018-09-27T15:36:43.428Z,21.75
2018-09-27T15:39:12.966Z,21.73
2018-09-27T15:41:42.699Z,21.71
2018-09-27T15:44:12.301Z,21.68
2018-09-27T15:46:41.927Z,21.66
2018-09-27T15:49:11.827Z,21.65
2018-09-27T15:51:40.841Z,21.64
2018-09-27T15:54:09.782Z,21.58
2018-09-27T15:56:39.363Z,21.56
2018-09-27T15:59:08.931Z,21.55
2018-09-27T16:01:38.381Z,21.52
2018-09-27T16:04:07.644Z,21.48
2018-09-27T16:06:37.988Z,21.44
2018-09-27T16:09:08.931Z,21.41
2018-09-27T16:11:38.026Z,21.38
2018-09-27T16:14:08.219Z,21.37
2018-09-27T16:16:38.321Z,21.33
2018-09-27T16:19:07.270Z,21.30
2018-09-27T16:21:36.201Z,21.27
2018-09-27T16:24:06.446Z,21.25
2018-09-27T16:26:37.396Z,21.19
2018-09-27T16:29:07.547Z,21.19
2018-09-27T16:31:38.116Z,21.14
2018-09-27T16:34:07.682Z,21.10
2018-09-27T16:36:38.984Z,21.07
2018-09-27T16:39:12.474Z,21.03
2018-09-27T16:41:43.354Z,21.00
2018-09-27T16:44:14.863Z,20.98
2018-09-27T16:46:45.006Z,20.91
2018-09-27T16:49:14.935Z,20.87
2018-09-27T16:51:44.524Z,20.85
2018-09-27T16:54:14.491Z,20.81
2018-09-27T16:56:44.499Z,20.75
2018-09-27T16:59:15.382Z,20.73
2018-09-27T17:01:46.203Z,20.66
2018-09-27T17:04:16.118Z,20.62
2018-09-27T17:06:46.479Z,20.59
2018-09-27T17:09:16.182Z,20.54
2018-09-27T17:11:45.783Z,20.50
2018-09-27T17:14:16.430Z,20.45
2018-09-27T17:16:46.128Z,20.40
2018-09-27T17:19:17.620Z,20.37
2018-09-27T17:21:47.704Z,20.32
2018-09-27T17:24:17.783Z,20.28
2018-09-27T17:26:47.271Z,20.22
2018-09-27T17:29:17.355Z,20.13
2018-09-27T17:31:47.371Z,20.11
2018-09-27T17:34:17.311Z,20.08
2018-09-27T17:36:48.122Z,20.06
2018-09-27T17:39:18.111Z,20.03
2018-09-27T17:41:48.185Z,19.95
2018-09-27T17:44:17.947Z,19.92
2018-09-27T17:53:49.550Z,19.72
2018-09-27T17:56:19.431Z,19.71
2018-09-27T17:58:49.852Z,19.67
2018-09-27T18:01:19.616Z,19.61
2018-09-27T18:03:48.688Z,19.61
2018-09-27T18:06:19.001Z,19.57
2018-09-27T18:08:49.475Z,19.55
2018-09-27T18:11:19.939Z,19.52
2018-09-27T18:13:49.775Z,19.52
2018-09-27T18:16:20.892Z,19.50
2018-09-27T18:18:51.625Z,19.48
2018-09-27T18:21:22.465Z,19.46
2018-09-27T18:23:52.827Z,19.44
2018-09-27T18:26:22.572Z,19.40
2018-09-27T18:28:52.868Z,19.39
2018-09-27T18:31:22.407Z,19.36
2018-09-27T18:33:52.399Z,19.37
2018-09-27T18:36:23.462Z,19.34
2018-09-27T18:38:53.583Z,19.32
2018-09-27T18:41:24.162Z,19.27
2018-09-27T18:43:54.475Z,19.27
2018-09-27T18:46:25.223Z,19.19
2018-09-27T18:48:56.018Z,19.18
2018-09-27T18:51:25.821Z,19.18
2018-09-27T18:53:55.667Z,19.16
2018-09-27T18:56:25.169Z,19.14
2018-09-27T18:58:54.555Z,19.12
2018-09-27T19:01:24.981Z,19.10
2018-09-27T19:03:54.673Z,19.06
2018-09-27T19:06:25.086Z,19.03
2018-09-27T19:08:54.391Z,18.94
2018-09-27T19:11:24.686Z,18.96
2018-09-27T19:13:54.734Z,18.94
2018-09-27T19:16:24.964Z,18.89
2018-09-27T19:18:55.559Z,18.87
2018-09-27T19:21:25.514Z,18.84
2018-09-27T19:23:56.249Z,18.74
2018-09-27T19:26:26.405Z,18.75
2018-09-27T19:28:58.010Z,18.71
2018-09-27T19:31:27.791Z,18.72
2018-09-27T19:33:57.340Z,18.64
2018-09-27T19:36:26.737Z,18.61
2018-09-27T19:38:56.666Z,18.55
2018-09-27T19:41:26.425Z,18.52
2018-09-27T19:43:56.239Z,18.50
2018-09-27T19:46:26.809Z,18.47
2018-09-27T19:48:57.150Z,18.43
2018-09-27T19:51:27.320Z,18.39
2018-09-27T19:53:57.107Z,18.30
2018-09-27T19:56:27.936Z,18.30
2018-09-27T19:58:58.573Z,18.27
2018-09-27T20:01:28.496Z,18.25
2018-09-27T20:03:58.656Z,18.22
2018-09-27T20:06:28.294Z,18.13
2018-09-27T20:08:57.892Z,18.14
2018-09-27T20:11:26.920Z,18.11
2018-09-27T20:13:57.711Z,18.00
2018-09-27T20:16:27.175Z,17.94
2018-09-27T20:18:56.733Z,17.92
2018-09-27T20:21:25.712Z,17.93
2018-09-27T20:23:54.118Z,17.90
2018-09-27T20:26:23.933Z,17.88
2018-09-27T20:28:53.598Z,17.81
2018-09-27T20:31:24.136Z,17.67
2018-09-27T20:33:53.463Z,17.69
2018-09-27T20:36:23.646Z,17.57
2018-09-27T20:38:55.317Z,17.62
2018-09-27T20:41:25.801Z,17.59
2018-09-27T20:43:54.966Z,17.55
2018-09-27T20:46:24.758Z,17.53
2018-09-27T20:48:54.956Z,17.48
2018-09-27T20:51:25.325Z,17.41
2018-09-27T20:53:55.437Z,17.36
2018-09-27T20:56:25.418Z,17.28
2018-09-27T20:58:55.634Z,17.28
2018-09-27T21:01:25.704Z,17.26
2018-09-27T21:03:57.681Z,17.16
2018-09-27T21:06:27.176Z,17.00
2018-09-27T21:08:56.474Z,16.93
2018-09-27T21:11:27.103Z,16.99
2018-09-27T21:13:57.853Z,17.05
2018-09-27T21:16:27.912Z,17.05
2018-09-27T21:18:57.452Z,17.01
2018-09-27T21:21:27.450Z,16.96
2018-09-27T21:23:57.294Z,16.94
2018-09-27T21:26:28.371Z,16.83
2018-09-27T21:28:58.300Z,16.74
2018-09-27T21:31:28.172Z,16.72
2018-09-27T21:33:58.347Z,16.68
2018-09-27T21:36:28.354Z,16.72
2018-09-27T21:38:59.315Z,16.70
2018-09-27T21:41:29.473Z,16.62
2018-09-27T21:43:58.953Z,16.59
2018-09-27T21:46:32.129Z,16.59
2018-09-27T21:49:01.981Z,16.56
2018-09-27T21:51:31.700Z,16.47
2018-09-27T21:54:01.988Z,16.51
2018-09-27T21:56:32.204Z,16.51
2018-09-27T21:59:03.291Z,16.49
2018-09-27T22:01:33.646Z,16.42
2018-09-27T22:04:03.875Z,16.42
2018-09-27T22:06:33.826Z,16.44
2018-09-27T22:09:05.860Z,16.40
2018-09-27T22:11:35.554Z,16.39
2018-09-27T22:14:05.682Z,16.34
2018-09-27T22:16:35.765Z,16.34
2018-09-27T22:19:06.858Z,16.33
2018-09-27T22:21:37.526Z,16.29
2018-09-27T22:24:07.708Z,16.24
2018-09-27T22:26:37.924Z,16.30
2018-09-27T22:29:10.048Z,16.31
2018-09-27T22:31:40.279Z,16.28
2018-09-27T22:34:10.514Z,16.23
2018-09-27T22:36:41.644Z,16.23
2018-09-27T22:39:12.417Z,16.22
2018-09-27T22:41:42.579Z,16.19
2018-09-27T22:44:12.536Z,16.19
2018-09-27T22:46:43.768Z,16.17
2018-09-27T22:49:14.607Z,16.17
2018-09-27T22:51:44.556Z,16.11
2018-09-27T22:54:15.745Z,16.10
2018-09-27T22:56:47.421Z,16.01
2018-09-27T22:59:17.646Z,15.96
2018-09-27T23:01:48.009Z,15.99
2018-09-27T23:04:18.289Z,15.94
2018-09-27T23:06:48.961Z,15.89
2018-09-27T23:09:18.933Z,15.88
2018-09-27T23:11:49.619Z,15.88
2018-09-27T23:14:20.328Z,15.76
2018-09-27T23:16:50.469Z,15.82
2018-09-27T23:19:20.791Z,15.69
2018-09-27T23:21:51.588Z,15.68
2018-09-27T23:24:22.367Z,15.66
2018-09-27T23:26:53.491Z,15.65
2018-09-27T23:29:23.828Z,15.64
2018-09-27T23:31:54.399Z,15.64
2018-09-27T23:34:24.690Z,15.48
2018-09-27T23:36:55.617Z,15.49
2018-09-27T23:39:26.234Z,15.49
2018-09-27T23:41:56.905Z,15.30
2018-09-27T23:44:27.649Z,15.35
2018-09-27T23:46:58.184Z,15.32
2018-09-27T23:49:29.094Z,15.27
2018-09-27T23:51:59.364Z,15.32
2018-09-27T23:54:29.989Z,15.32
2018-09-27T23:57:00.134Z,15.28
2018-09-27T23:59:30.044Z,15.21
